sensor_id;sensor_type;location;lat;lon;timestamp;P1;durP1;ratioP1;P2;durP2;ratioP2
1591;SDS011;789;51.612;7.510;2022-07-23T00:00:04;10.03;;;9.03;;
1591;SDS011;789;51.612;7.510;2022-07-23T00:02:32;10.80;;;8.20;;
1591;SDS011;789;51.612;7.510;2022-07-23T00:04:59;11.60;;;9.17;;
1591;SDS011;789;51.612;7.510;2022-07-23T00:07:26;9.70;;;8.40;;
1591;SDS011;789;51.612;7.510;2022-07-23T00:09:52;10.43;;;9.33;;
1591;SDS011;789;51.612;7.510;2022-07-23T00:12:21;10.37;;;8.27;;
1591;SDS011;789;51.612;7.510;2022-07-23T00:14:48;13.97;;;9.03;;
1591;SDS011;789;51.612;7.510;2022-07-23T00:17:15;11.40;;;8.07;;
1591;SDS011;789;51.612;7.510;2022-07-23T00:19:42;12.43;;;9.10;;
1591;SDS011;789;51.612;7.510;2022-07-23T00:22:08;10.70;;;9.60;;
1591;SDS011;789;51.612;7.510;2022-07-23T00:24:35;15.30;;;10.50;;
1591;SDS011;789;51.612;7.510;2022-07-23T00:27:02;13.57;;;11.00;;
1591;SDS011;789;51.612;7.510;2022-07-23T00:29:30;15.40;;;11.00;;
1591;SDS011;789;51.612;7.510;2022-07-23T00:31:57;11.57;;;9.93;;
1591;SDS011;789;51.612;7.510;2022-07-23T00:34:23;13.60;;;10.67;;
1591;SDS011;789;51.612;7.510;2022-07-23T00:36:50;16.57;;;11.30;;
1591;SDS011;789;51.612;7.510;2022-07-23T00:39:18;12.57;;;10.30;;
1591;SDS011;789;51.612;7.510;2022-07-23T00:41:46;13.40;;;11.60;;
1591;SDS011;789;51.612;7.510;2022-07-23T00:44:20;11.77;;;10.43;;
1591;SDS011;789;51.612;7.510;2022-07-23T00:46:50;16.40;;;10.70;;
1591;SDS011;789;51.612;7.510;2022-07-23T00:49:19;11.40;;;10.20;;
1591;SDS011;789;51.612;7.510;2022-07-23T00:51:46;14.33;;;11.00;;
1591;SDS011;789;51.612;7.510;2022-07-23T00:54:14;11.60;;;10.23;;
1591;SDS011;789;51.612;7.510;2022-07-23T00:56:41;11.90;;;10.23;;
1591;SDS011;789;51.612;7.510;2022-07-23T00:59:10;10.77;;;9.67;;
1591;SDS011;789;51.612;7.510;2022-07-23T01:01:37;12.20;;;10.07;;
1591;SDS011;789;51.612;7.510;2022-07-23T01:04:05;11.30;;;10.10;;
1591;SDS011;789;51.612;7.510;2022-07-23T01:06:34;12.27;;;10.93;;
1591;SDS011;789;51.612;7.510;2022-07-23T01:09:03;11.87;;;10.43;;
1591;SDS011;789;51.612;7.510;2022-07-23T01:11:31;11.30;;;10.13;;
1591;SDS011;789;51.612;7.510;2022-07-23T01:14:06;11.63;;;10.43;;
1591;SDS011;789;51.612;7.510;2022-07-23T01:16:34;14.03;;;10.50;;
1591;SDS011;789;51.612;7.510;2022-07-23T01:19:01;12.10;;;10.73;;
1591;SDS011;789;51.612;7.510;2022-07-23T01:21:30;12.30;;;11.20;;
1591;SDS011;789;51.612;7.510;2022-07-23T01:24:00;12.50;;;11.20;;
1591;SDS011;789;51.612;7.510;2022-07-23T01:26:27;13.83;;;11.90;;
1591;SDS011;789;51.612;7.510;2022-07-23T01:28:54;13.60;;;12.30;;
1591;SDS011;789;51.612;7.510;2022-07-23T01:31:21;12.23;;;11.00;;
1591;SDS011;789;51.612;7.510;2022-07-23T01:33:47;14.40;;;11.63;;
1591;SDS011;789;51.612;7.510;2022-07-23T01:36:14;13.23;;;11.83;;
1591;SDS011;789;51.612;7.510;2022-07-23T01:38:41;12.13;;;11.03;;
1591;SDS011;789;51.612;7.510;2022-07-23T01:41:09;12.30;;;11.10;;
1591;SDS011;789;51.612;7.510;2022-07-23T01:43:36;12.80;;;11.50;;
1591;SDS011;789;51.612;7.510;2022-07-23T01:46:03;12.87;;;11.77;;
1591;SDS011;789;51.612;7.510;2022-07-23T01:48:30;12.50;;;11.30;;
1591;SDS011;789;51.612;7.510;2022-07-23T01:50:57;13.93;;;12.00;;
1591;SDS011;789;51.612;7.510;2022-07-23T01:53:23;13.57;;;12.17;;
1591;SDS011;789;51.612;7.510;2022-07-23T01:55:50;12.90;;;11.70;;
1591;SDS011;789;51.612;7.510;2022-07-23T01:58:18;15.47;;;13.13;;
1591;SDS011;789;51.612;7.510;2022-07-23T02:00:45;14.80;;;12.63;;
1591;SDS011;789;51.612;7.510;2022-07-23T02:03:12;14.20;;;12.70;;
1591;SDS011;789;51.612;7.510;2022-07-23T02:05:39;18.40;;;13.33;;
1591;SDS011;789;51.612;7.510;2022-07-23T02:08:05;14.07;;;12.37;;
1591;SDS011;789;51.612;7.510;2022-07-23T02:10:32;13.83;;;12.50;;
1591;SDS011;789;51.612;7.510;2022-07-23T02:12:59;15.57;;;13.43;;
1591;SDS011;789;51.612;7.510;2022-07-23T02:15:27;14.57;;;13.23;;
1591;SDS011;789;51.612;7.510;2022-07-23T02:17:54;13.50;;;12.20;;
1591;SDS011;789;51.612;7.510;2022-07-23T02:20:21;14.93;;;13.53;;
1591;SDS011;789;51.612;7.510;2022-07-23T02:22:48;13.43;;;12.10;;
1591;SDS011;789;51.612;7.510;2022-07-23T02:25:15;15.67;;;14.23;;
1591;SDS011;789;51.612;7.510;2022-07-23T02:27:42;15.53;;;14.13;;
1591;SDS011;789;51.612;7.510;2022-07-23T02:30:09;15.17;;;13.57;;
1591;SDS011;789;51.612;7.510;2022-07-23T02:32:38;14.60;;;13.20;;
1591;SDS011;789;51.612;7.510;2022-07-23T02:35:06;14.87;;;13.50;;
1591;SDS011;789;51.612;7.510;2022-07-23T02:37:33;15.47;;;13.87;;
1591;SDS011;789;51.612;7.510;2022-07-23T02:40:00;16.17;;;14.47;;
1591;SDS011;789;51.612;7.510;2022-07-23T02:42:27;16.43;;;14.83;;
1591;SDS011;789;51.612;7.510;2022-07-23T02:44:53;16.80;;;14.73;;
1591;SDS011;789;51.612;7.510;2022-07-23T02:47:20;15.57;;;13.87;;
1591;SDS011;789;51.612;7.510;2022-07-23T02:49:48;16.33;;;14.63;;
1591;SDS011;789;51.612;7.510;2022-07-23T02:52:15;16.00;;;13.70;;
1591;SDS011;789;51.612;7.510;2022-07-23T02:54:42;15.53;;;13.90;;
1591;SDS011;789;51.612;7.510;2022-07-23T02:57:08;16.53;;;14.90;;
1591;SDS011;789;51.612;7.510;2022-07-23T02:59:35;18.43;;;14.00;;
1591;SDS011;789;51.612;7.510;2022-07-23T03:02:02;18.50;;;14.60;;
1591;SDS011;789;51.612;7.510;2022-07-23T03:04:29;16.03;;;14.30;;
1591;SDS011;789;51.612;7.510;2022-07-23T03:06:57;17.90;;;14.93;;
1591;SDS011;789;51.612;7.510;2022-07-23T03:09:23;17.07;;;15.30;;
1591;SDS011;789;51.612;7.510;2022-07-23T03:11:50;16.07;;;14.37;;
1591;SDS011;789;51.612;7.510;2022-07-23T03:14:17;16.80;;;15.07;;
1591;SDS011;789;51.612;7.510;2022-07-23T03:16:44;17.77;;;14.33;;
1591;SDS011;789;51.612;7.510;2022-07-23T03:19:10;16.40;;;14.20;;
1591;SDS011;789;51.612;7.510;2022-07-23T03:21:37;14.40;;;13.00;;
1591;SDS011;789;51.612;7.510;2022-07-23T03:24:07;16.10;;;14.40;;
1591;SDS011;789;51.612;7.510;2022-07-23T03:26:34;16.97;;;14.53;;
1591;SDS011;789;51.612;7.510;2022-07-23T03:29:01;16.63;;;14.90;;
1591;SDS011;789;51.612;7.510;2022-07-23T03:31:29;15.63;;;14.20;;
1591;SDS011;789;51.612;7.510;2022-07-23T03:33:56;15.80;;;14.37;;
1591;SDS011;789;51.612;7.510;2022-07-23T03:36:23;16.60;;;14.10;;
1591;SDS011;789;51.612;7.510;2022-07-23T03:38:50;16.17;;;14.40;;
1591;SDS011;789;51.612;7.510;2022-07-23T03:41:19;19.23;;;15.60;;
1591;SDS011;789;51.612;7.510;2022-07-23T03:43:46;16.00;;;14.30;;
1591;SDS011;789;51.612;7.510;2022-07-23T03:46:13;19.67;;;17.70;;
1591;SDS011;789;51.612;7.510;2022-07-23T03:48:40;16.73;;;14.97;;
1591;SDS011;789;51.612;7.510;2022-07-23T03:51:07;17.70;;;14.87;;
1591;SDS011;789;51.612;7.510;2022-07-23T03:53:33;16.97;;;15.23;;
1591;SDS011;789;51.612;7.510;2022-07-23T03:56:00;16.40;;;14.80;;
1591;SDS011;789;51.612;7.510;2022-07-23T03:58:28;18.30;;;15.40;;
1591;SDS011;789;51.612;7.510;2022-07-23T04:00:55;15.37;;;13.80;;
1591;SDS011;789;51.612;7.510;2022-07-23T04:03:22;16.07;;;14.50;;
1591;SDS011;789;51.612;7.510;2022-07-23T04:05:49;16.70;;;15.00;;
1591;SDS011;789;51.612;7.510;2022-07-23T04:08:16;25.17;;;16.00;;
1591;SDS011;789;51.612;7.510;2022-07-23T04:10:42;16.77;;;15.00;;
1591;SDS011;789;51.612;7.510;2022-07-23T04:13:09;15.87;;;14.27;;
1591;SDS011;789;51.612;7.510;2022-07-23T04:15:38;16.10;;;14.60;;
1591;SDS011;789;51.612;7.510;2022-07-23T04:18:05;16.60;;;14.70;;
1591;SDS011;789;51.612;7.510;2022-07-23T04:20:32;17.83;;;16.00;;
1591;SDS011;789;51.612;7.510;2022-07-23T04:22:59;17.90;;;16.13;;
1591;SDS011;789;51.612;7.510;2022-07-23T04:25:26;18.07;;;16.17;;
1591;SDS011;789;51.612;7.510;2022-07-23T04:27:53;18.73;;;16.30;;
1591;SDS011;789;51.612;7.510;2022-07-23T04:30:20;18.40;;;16.70;;
1591;SDS011;789;51.612;7.510;2022-07-23T04:32:48;16.47;;;14.87;;
1591;SDS011;789;51.612;7.510;2022-07-23T04:35:14;17.67;;;15.97;;
1591;SDS011;789;51.612;7.510;2022-07-23T04:37:41;16.70;;;15.20;;
1591;SDS011;789;51.612;7.510;2022-07-23T04:40:08;17.20;;;15.57;;
1591;SDS011;789;51.612;7.510;2022-07-23T04:42:36;17.37;;;15.70;;
1591;SDS011;789;51.612;7.510;2022-07-23T04:45:03;16.87;;;15.37;;
1591;SDS011;789;51.612;7.510;2022-07-23T04:47:30;16.03;;;14.60;;
1591;SDS011;789;51.612;7.510;2022-07-23T04:49:58;16.77;;;15.23;;
1591;SDS011;789;51.612;7.510;2022-07-23T04:52:25;17.93;;;15.60;;
1591;SDS011;789;51.612;7.510;2022-07-23T04:54:52;16.17;;;14.67;;
1591;SDS011;789;51.612;7.510;2022-07-23T04:57:19;16.30;;;14.80;;
1591;SDS011;789;51.612;7.510;2022-07-23T04:59:45;15.80;;;14.13;;
1591;SDS011;789;51.612;7.510;2022-07-23T05:02:12;16.13;;;14.50;;
1591;SDS011;789;51.612;7.510;2022-07-23T05:04:39;15.87;;;14.23;;
1591;SDS011;789;51.612;7.510;2022-07-23T05:07:07;15.77;;;14.30;;
1591;SDS011;789;51.612;7.510;2022-07-23T05:09:34;15.77;;;14.13;;
1591;SDS011;789;51.612;7.510;2022-07-23T05:12:00;16.17;;;14.63;;
1591;SDS011;789;51.612;7.510;2022-07-23T05:14:27;17.03;;;14.23;;
1591;SDS011;789;51.612;7.510;2022-07-23T05:16:54;16.37;;;13.33;;
1591;SDS011;789;51.612;7.510;2022-07-23T05:19:21;14.47;;;12.97;;
1591;SDS011;789;51.612;7.510;2022-07-23T05:21:48;14.50;;;13.10;;
1591;SDS011;789;51.612;7.510;2022-07-23T05:24:16;14.50;;;13.00;;
1591;SDS011;789;51.612;7.510;2022-07-23T05:26:42;15.07;;;12.77;;
1591;SDS011;789;51.612;7.510;2022-07-23T05:29:09;14.47;;;13.00;;
1591;SDS011;789;51.612;7.510;2022-07-23T05:31:36;14.63;;;13.23;;
1591;SDS011;789;51.612;7.510;2022-07-23T05:34:02;13.73;;;12.50;;
1591;SDS011;789;51.612;7.510;2022-07-23T05:36:30;15.57;;;13.60;;
1591;SDS011;789;51.612;7.510;2022-07-23T05:38:58;14.50;;;13.00;;
1591;SDS011;789;51.612;7.510;2022-07-23T05:41:26;12.83;;;11.70;;
1591;SDS011;789;51.612;7.510;2022-07-23T05:43:53;13.90;;;12.50;;
1591;SDS011;789;51.612;7.510;2022-07-23T05:46:19;12.83;;;11.53;;
1591;SDS011;789;51.612;7.510;2022-07-23T05:48:46;13.90;;;11.53;;
1591;SDS011;789;51.612;7.510;2022-07-23T05:51:18;12.77;;;11.47;;
1591;SDS011;789;51.612;7.510;2022-07-23T05:53:45;12.03;;;10.90;;
1591;SDS011;789;51.612;7.510;2022-07-23T05:56:12;12.47;;;11.30;;
1591;SDS011;789;51.612;7.510;2022-07-23T05:58:40;11.37;;;10.40;;
1591;SDS011;789;51.612;7.510;2022-07-23T06:01:07;11.70;;;10.60;;
1591;SDS011;789;51.612;7.510;2022-07-23T06:03:34;12.03;;;11.03;;
1591;SDS011;789;51.612;7.510;2022-07-23T06:06:01;11.30;;;10.27;;
1591;SDS011;789;51.612;7.510;2022-07-23T06:08:28;11.87;;;10.77;;
1591;SDS011;789;51.612;7.510;2022-07-23T06:10:55;11.27;;;10.00;;
1591;SDS011;789;51.612;7.510;2022-07-23T06:13:22;14.10;;;10.33;;
1591;SDS011;789;51.612;7.510;2022-07-23T06:15:50;12.60;;;11.30;;
1591;SDS011;789;51.612;7.510;2022-07-23T06:18:17;11.83;;;10.73;;
1591;SDS011;789;51.612;7.510;2022-07-23T06:20:43;12.10;;;11.00;;
1591;SDS011;789;51.612;7.510;2022-07-23T06:23:10;15.60;;;12.40;;
1591;SDS011;789;51.612;7.510;2022-07-23T06:25:37;12.40;;;11.17;;
1591;SDS011;789;51.612;7.510;2022-07-23T06:28:04;15.80;;;12.20;;
1591;SDS011;789;51.612;7.510;2022-07-23T06:30:31;13.03;;;11.70;;
1591;SDS011;789;51.612;7.510;2022-07-23T06:32:59;12.37;;;11.20;;
1591;SDS011;789;51.612;7.510;2022-07-23T06:35:26;12.77;;;11.47;;
1591;SDS011;789;51.612;7.510;2022-07-23T06:37:53;15.17;;;13.73;;
1591;SDS011;789;51.612;7.510;2022-07-23T06:40:20;15.37;;;13.97;;
1591;SDS011;789;51.612;7.510;2022-07-23T06:42:46;16.03;;;12.80;;
1591;SDS011;789;51.612;7.510;2022-07-23T06:45:13;13.13;;;11.93;;
1591;SDS011;789;51.612;7.510;2022-07-23T06:47:40;17.00;;;13.23;;
1591;SDS011;789;51.612;7.510;2022-07-23T06:50:08;16.87;;;13.30;;
1591;SDS011;789;51.612;7.510;2022-07-23T06:52:36;14.90;;;13.20;;
1591;SDS011;789;51.612;7.510;2022-07-23T06:55:03;15.60;;;13.97;;
1591;SDS011;789;51.612;7.510;2022-07-23T06:57:30;15.27;;;13.10;;
1591;SDS011;789;51.612;7.510;2022-07-23T06:59:57;14.30;;;12.77;;
1591;SDS011;789;51.612;7.510;2022-07-23T07:02:24;17.00;;;13.80;;
1591;SDS011;789;51.612;7.510;2022-07-23T07:04:50;15.63;;;13.43;;
1591;SDS011;789;51.612;7.510;2022-07-23T07:07:19;18.77;;;12.40;;
1591;SDS011;789;51.612;7.510;2022-07-23T07:09:46;13.60;;;12.30;;
1591;SDS011;789;51.612;7.510;2022-07-23T07:12:12;18.10;;;16.20;;
1591;SDS011;789;51.612;7.510;2022-07-23T07:14:39;18.27;;;16.37;;
1591;SDS011;789;51.612;7.510;2022-07-23T07:17:06;16.50;;;14.90;;
1591;SDS011;789;51.612;7.510;2022-07-23T07:19:33;16.23;;;14.67;;
1591;SDS011;789;51.612;7.510;2022-07-23T07:21:59;16.90;;;14.87;;
1591;SDS011;789;51.612;7.510;2022-07-23T07:24:27;16.90;;;14.90;;
1591;SDS011;789;51.612;7.510;2022-07-23T07:26:54;17.60;;;15.90;;
1591;SDS011;789;51.612;7.510;2022-07-23T07:29:21;16.00;;;14.27;;
1591;SDS011;789;51.612;7.510;2022-07-23T07:31:48;15.23;;;13.57;;
1591;SDS011;789;51.612;7.510;2022-07-23T07:34:14;18.07;;;13.80;;
1591;SDS011;789;51.612;7.510;2022-07-23T07:36:41;15.70;;;13.07;;
1591;SDS011;789;51.612;7.510;2022-07-23T07:39:08;14.13;;;12.73;;
1591;SDS011;789;51.612;7.510;2022-07-23T07:41:37;14.40;;;11.97;;
1591;SDS011;789;51.612;7.510;2022-07-23T07:44:03;14.27;;;12.50;;
1591;SDS011;789;51.612;7.510;2022-07-23T07:46:30;14.13;;;11.50;;
1591;SDS011;789;51.612;7.510;2022-07-23T07:48:57;14.20;;;12.60;;
1591;SDS011;789;51.612;7.510;2022-07-23T07:51:24;13.50;;;12.10;;
1591;SDS011;789;51.612;7.510;2022-07-23T07:53:52;16.37;;;14.83;;
1591;SDS011;789;51.612;7.510;2022-07-23T07:56:18;36.87;;;33.53;;
1591;SDS011;789;51.612;7.510;2022-07-23T07:58:47;11.40;;;10.20;;
1591;SDS011;789;51.612;7.510;2022-07-23T08:01:13;9.53;;;8.63;;
1591;SDS011;789;51.612;7.510;2022-07-23T08:03:40;13.37;;;10.07;;
1591;SDS011;789;51.612;7.510;2022-07-23T08:06:07;12.60;;;10.60;;
1591;SDS011;789;51.612;7.510;2022-07-23T08:08:34;11.27;;;10.27;;
1591;SDS011;789;51.612;7.510;2022-07-23T08:11:00;10.27;;;8.97;;
1591;SDS011;789;51.612;7.510;2022-07-23T08:13:27;9.67;;;8.67;;
1591;SDS011;789;51.612;7.510;2022-07-23T08:15:55;10.00;;;9.00;;
1591;SDS011;789;51.612;7.510;2022-07-23T08:18:22;15.90;;;14.63;;
1591;SDS011;789;51.612;7.510;2022-07-23T08:20:49;12.43;;;11.37;;
1591;SDS011;789;51.612;7.510;2022-07-23T08:23:15;9.50;;;8.60;;
1591;SDS011;789;51.612;7.510;2022-07-23T08:25:44;9.70;;;8.83;;
1591;SDS011;789;51.612;7.510;2022-07-23T08:28:12;8.40;;;7.43;;
1591;SDS011;789;51.612;7.510;2022-07-23T08:30:40;8.30;;;7.50;;
1591;SDS011;789;51.612;7.510;2022-07-23T08:33:11;8.43;;;7.60;;
1591;SDS011;789;51.612;7.510;2022-07-23T08:35:40;9.57;;;7.67;;
1591;SDS011;789;51.612;7.510;2022-07-23T08:38:09;8.27;;;7.27;;
1591;SDS011;789;51.612;7.510;2022-07-23T08:40:38;7.77;;;7.07;;
1591;SDS011;789;51.612;7.510;2022-07-23T08:43:07;6.50;;;5.97;;
1591;SDS011;789;51.612;7.510;2022-07-23T08:45:37;8.00;;;6.17;;
1591;SDS011;789;51.612;7.510;2022-07-23T08:48:08;7.90;;;7.20;;
1591;SDS011;789;51.612;7.510;2022-07-23T08:50:37;21.17;;;19.37;;
1591;SDS011;789;51.612;7.510;2022-07-23T08:53:06;7.60;;;6.10;;
1591;SDS011;789;51.612;7.510;2022-07-23T08:55:33;6.47;;;5.57;;
1591;SDS011;789;51.612;7.510;2022-07-23T08:58:00;6.87;;;6.13;;
1591;SDS011;789;51.612;7.510;2022-07-23T09:00:27;5.40;;;4.90;;
1591;SDS011;789;51.612;7.510;2022-07-23T09:02:55;5.87;;;4.90;;
1591;SDS011;789;51.612;7.510;2022-07-23T09:05:23;6.17;;;5.67;;
1591;SDS011;789;51.612;7.510;2022-07-23T09:08:06;5.80;;;5.30;;
1591;SDS011;789;51.612;7.510;2022-07-23T09:10:42;7.60;;;5.77;;
1591;SDS011;789;51.612;7.510;2022-07-23T09:13:24;5.07;;;4.67;;
1591;SDS011;789;51.612;7.510;2022-07-23T09:16:03;5.80;;;5.00;;
1591;SDS011;789;51.612;7.510;2022-07-23T09:18:33;5.40;;;4.90;;
1591;SDS011;789;51.612;7.510;2022-07-23T09:21:20;5.40;;;4.90;;
1591;SDS011;789;51.612;7.510;2022-07-23T09:23:53;6.30;;;5.30;;
1591;SDS011;789;51.612;7.510;2022-07-23T09:26:23;4.80;;;4.40;;
1591;SDS011;789;51.612;7.510;2022-07-23T09:29:01;4.53;;;4.13;;
1591;SDS011;789;51.612;7.510;2022-07-23T09:31:34;4.60;;;3.90;;
1591;SDS011;789;51.612;7.510;2022-07-23T09:34:09;4.73;;;4.30;;
1591;SDS011;789;51.612;7.510;2022-07-23T09:36:38;4.60;;;4.20;;
1591;SDS011;789;51.612;7.510;2022-07-23T09:39:06;5.07;;;4.70;;
1591;SDS011;789;51.612;7.510;2022-07-23T09:41:34;5.17;;;4.40;;
1591;SDS011;789;51.612;7.510;2022-07-23T09:46:48;5.83;;;5.43;;
1591;SDS011;789;51.612;7.510;2022-07-23T09:49:17;5.07;;;4.57;;
1591;SDS011;789;51.612;7.510;2022-07-23T09:51:48;7.27;;;4.73;;
1591;SDS011;789;51.612;7.510;2022-07-23T09:54:24;6.00;;;5.40;;
1591;SDS011;789;51.612;7.510;2022-07-23T09:56:58;5.20;;;4.30;;
1591;SDS011;789;51.612;7.510;2022-07-23T09:59:28;6.60;;;5.13;;
1591;SDS011;789;51.612;7.510;2022-07-23T10:01:58;7.20;;;6.00;;
1591;SDS011;789;51.612;7.510;2022-07-23T10:04:26;5.63;;;5.13;;
1591;SDS011;789;51.612;7.510;2022-07-23T10:06:56;4.70;;;4.20;;
1591;SDS011;789;51.612;7.510;2022-07-23T10:09:26;4.90;;;4.50;;
1591;SDS011;789;51.612;7.510;2022-07-23T10:11:55;4.60;;;4.20;;
1591;SDS011;789;51.612;7.510;2022-07-23T10:14:27;5.23;;;4.80;;
1591;SDS011;789;51.612;7.510;2022-07-23T10:16:56;9.23;;;4.20;;
1591;SDS011;789;51.612;7.510;2022-07-23T10:19:23;9.07;;;4.40;;
1591;SDS011;789;51.612;7.510;2022-07-23T10:21:52;4.40;;;4.10;;
1591;SDS011;789;51.612;7.510;2022-07-23T10:24:29;6.07;;;4.27;;
1591;SDS011;789;51.612;7.510;2022-07-23T10:27:10;5.83;;;5.23;;
1591;SDS011;789;51.612;7.510;2022-07-23T10:29:58;5.17;;;4.77;;
1591;SDS011;789;51.612;7.510;2022-07-23T10:32:32;5.27;;;4.87;;
1591;SDS011;789;51.612;7.510;2022-07-23T10:35:18;4.50;;;4.03;;
1591;SDS011;789;51.612;7.510;2022-07-23T10:37:53;5.07;;;3.93;;
1591;SDS011;789;51.612;7.510;2022-07-23T10:40:23;5.80;;;3.40;;
1591;SDS011;789;51.612;7.510;2022-07-23T10:42:51;3.53;;;3.23;;
1591;SDS011;789;51.612;7.510;2022-07-23T10:45:25;4.70;;;4.30;;
1591;SDS011;789;51.612;7.510;2022-07-23T10:47:54;5.27;;;4.87;;
1591;SDS011;789;51.612;7.510;2022-07-23T10:50:23;4.90;;;4.40;;
1591;SDS011;789;51.612;7.510;2022-07-23T10:55:44;6.00;;;5.50;;
1591;SDS011;789;51.612;7.510;2022-07-23T10:58:17;5.00;;;4.50;;
1591;SDS011;789;51.612;7.510;2022-07-23T11:00:58;8.67;;;5.50;;
1591;SDS011;789;51.612;7.510;2022-07-23T11:03:28;5.40;;;5.00;;
1591;SDS011;789;51.612;7.510;2022-07-23T11:06:01;8.23;;;5.00;;
1591;SDS011;789;51.612;7.510;2022-07-23T11:08:30;6.37;;;5.00;;
1591;SDS011;789;51.612;7.510;2022-07-23T11:11:09;5.40;;;5.00;;
1591;SDS011;789;51.612;7.510;2022-07-23T11:13:47;5.07;;;4.60;;
1591;SDS011;789;51.612;7.510;2022-07-23T11:16:18;4.17;;;3.87;;
1591;SDS011;789;51.612;7.510;2022-07-23T11:18:55;6.30;;;4.53;;
1591;SDS011;789;51.612;7.510;2022-07-23T11:21:43;4.60;;;4.20;;
1591;SDS011;789;51.612;7.510;2022-07-23T11:24:16;5.57;;;5.00;;
1591;SDS011;789;51.612;7.510;2022-07-23T11:26:45;8.30;;;5.60;;
1591;SDS011;789;51.612;7.510;2022-07-23T11:29:37;12.43;;;11.43;;
1591;SDS011;789;51.612;7.510;2022-07-23T11:32:30;48.07;;;44.40;;
1591;SDS011;789;51.612;7.510;2022-07-23T11:35:00;3.90;;;3.60;;
1591;SDS011;789;51.612;7.510;2022-07-23T11:37:35;4.63;;;3.70;;
1591;SDS011;789;51.612;7.510;2022-07-23T11:40:07;6.27;;;5.50;;
1591;SDS011;789;51.612;7.510;2022-07-23T11:42:36;3.70;;;3.40;;
1591;SDS011;789;51.612;7.510;2022-07-23T11:45:04;3.20;;;3.00;;
1591;SDS011;789;51.612;7.510;2022-07-23T11:47:33;2.63;;;2.43;;
1591;SDS011;789;51.612;7.510;2022-07-23T11:50:01;3.30;;;2.83;;
1591;SDS011;789;51.612;7.510;2022-07-23T11:52:30;3.30;;;3.00;;
1591;SDS011;789;51.612;7.510;2022-07-23T11:54:57;3.30;;;3.00;;
1591;SDS011;789;51.612;7.510;2022-07-23T11:57:27;4.80;;;3.20;;
1591;SDS011;789;51.612;7.510;2022-07-23T11:59:56;2.90;;;2.70;;
1591;SDS011;789;51.612;7.510;2022-07-23T12:02:26;5.87;;;3.23;;
1591;SDS011;789;51.612;7.510;2022-07-23T12:04:53;5.33;;;2.60;;
1591;SDS011;789;51.612;7.510;2022-07-23T12:10:09;3.00;;;2.73;;
1591;SDS011;789;51.612;7.510;2022-07-23T12:12:40;5.10;;;2.57;;
1591;SDS011;789;51.612;7.510;2022-07-23T12:15:09;3.23;;;2.90;;
1591;SDS011;789;51.612;7.510;2022-07-23T12:17:37;2.80;;;2.50;;
1591;SDS011;789;51.612;7.510;2022-07-23T12:20:09;4.83;;;2.80;;
1591;SDS011;789;51.612;7.510;2022-07-23T12:22:39;3.07;;;2.77;;
1591;SDS011;789;51.612;7.510;2022-07-23T12:25:08;3.83;;;2.70;;
1591;SDS011;789;51.612;7.510;2022-07-23T12:27:37;3.67;;;2.57;;
1591;SDS011;789;51.612;7.510;2022-07-23T12:30:15;3.63;;;2.50;;
1591;SDS011;789;51.612;7.510;2022-07-23T12:32:47;5.60;;;2.70;;
1591;SDS011;789;51.612;7.510;2022-07-23T12:35:16;5.67;;;4.70;;
1591;SDS011;789;51.612;7.510;2022-07-23T12:37:44;4.70;;;3.90;;
1591;SDS011;789;51.612;7.510;2022-07-23T12:40:22;9.93;;;8.27;;
1591;SDS011;789;51.612;7.510;2022-07-23T12:42:56;3.07;;;2.77;;
1591;SDS011;789;51.612;7.510;2022-07-23T12:45:24;4.10;;;2.63;;
1591;SDS011;789;51.612;7.510;2022-07-23T12:47:56;5.33;;;3.40;;
1591;SDS011;789;51.612;7.510;2022-07-23T12:50:32;3.57;;;2.97;;
1591;SDS011;789;51.612;7.510;2022-07-23T12:53:02;2.57;;;2.27;;
1591;SDS011;789;51.612;7.510;2022-07-23T12:55:34;3.53;;;3.20;;
1591;SDS011;789;51.612;7.510;2022-07-23T12:58:07;3.77;;;3.00;;
1591;SDS011;789;51.612;7.510;2022-07-23T13:00:48;4.20;;;3.90;;
1591;SDS011;789;51.612;7.510;2022-07-23T13:03:21;3.90;;;2.80;;
1591;SDS011;789;51.612;7.510;2022-07-23T13:05:48;2.70;;;2.50;;
1591;SDS011;789;51.612;7.510;2022-07-23T13:08:15;2.50;;;2.30;;
1591;SDS011;789;51.612;7.510;2022-07-23T13:10:42;4.20;;;2.73;;
1591;SDS011;789;51.612;7.510;2022-07-23T13:13:13;4.30;;;2.17;;
1591;SDS011;789;51.612;7.510;2022-07-23T13:15:40;3.63;;;2.30;;
1591;SDS011;789;51.612;7.510;2022-07-23T13:18:07;2.80;;;2.50;;
1591;SDS011;789;51.612;7.510;2022-07-23T13:20:34;4.30;;;2.97;;
1591;SDS011;789;51.612;7.510;2022-07-23T13:23:01;2.90;;;2.30;;
1591;SDS011;789;51.612;7.510;2022-07-23T13:25:28;5.53;;;3.10;;
1591;SDS011;789;51.612;7.510;2022-07-23T13:27:55;4.33;;;2.73;;
1591;SDS011;789;51.612;7.510;2022-07-23T13:30:23;2.30;;;2.10;;
1591;SDS011;789;51.612;7.510;2022-07-23T13:32:50;3.93;;;2.80;;
1591;SDS011;789;51.612;7.510;2022-07-23T13:35:16;4.97;;;3.17;;
1591;SDS011;789;51.612;7.510;2022-07-23T13:37:43;4.00;;;2.90;;
1591;SDS011;789;51.612;7.510;2022-07-23T13:40:10;2.60;;;2.40;;
1591;SDS011;789;51.612;7.510;2022-07-23T13:42:37;3.93;;;2.90;;
1591;SDS011;789;51.612;7.510;2022-07-23T13:45:05;4.20;;;3.70;;
1591;SDS011;789;51.612;7.510;2022-07-23T13:47:33;3.33;;;2.60;;
1591;SDS011;789;51.612;7.510;2022-07-23T13:50:00;3.23;;;2.70;;
1591;SDS011;789;51.612;7.510;2022-07-23T13:52:27;3.50;;;3.20;;
1591;SDS011;789;51.612;7.510;2022-07-23T13:54:54;4.33;;;2.70;;
1591;SDS011;789;51.612;7.510;2022-07-23T13:57:20;3.10;;;2.73;;
1591;SDS011;789;51.612;7.510;2022-07-23T13:59:47;2.90;;;2.53;;
1591;SDS011;789;51.612;7.510;2022-07-23T14:02:14;3.43;;;2.80;;
1591;SDS011;789;51.612;7.510;2022-07-23T14:04:44;3.57;;;2.63;;
1591;SDS011;789;51.612;7.510;2022-07-23T14:07:11;3.50;;;2.50;;
1591;SDS011;789;51.612;7.510;2022-07-23T14:09:38;3.07;;;2.87;;
1591;SDS011;789;51.612;7.510;2022-07-23T14:12:05;4.70;;;4.30;;
1591;SDS011;789;51.612;7.510;2022-07-23T14:14:33;3.97;;;3.60;;
1591;SDS011;789;51.612;7.510;2022-07-23T14:16:59;5.67;;;4.27;;
1591;SDS011;789;51.612;7.510;2022-07-23T14:19:27;4.17;;;3.83;;
1591;SDS011;789;51.612;7.510;2022-07-23T14:21:55;5.47;;;3.50;;
1591;SDS011;789;51.612;7.510;2022-07-23T14:24:22;3.53;;;3.10;;
1591;SDS011;789;51.612;7.510;2022-07-23T14:26:49;5.23;;;2.83;;
1591;SDS011;789;51.612;7.510;2022-07-23T14:29:15;4.57;;;3.33;;
1591;SDS011;789;51.612;7.510;2022-07-23T14:31:42;2.67;;;2.40;;
1591;SDS011;789;51.612;7.510;2022-07-23T14:34:09;4.97;;;3.13;;
1591;SDS011;789;51.612;7.510;2022-07-23T14:36:36;3.43;;;2.80;;
1591;SDS011;789;51.612;7.510;2022-07-23T14:39:05;8.30;;;3.50;;
1591;SDS011;789;51.612;7.510;2022-07-23T14:41:33;3.60;;;3.20;;
1591;SDS011;789;51.612;7.510;2022-07-23T14:44:00;7.53;;;2.90;;
1591;SDS011;789;51.612;7.510;2022-07-23T14:46:27;2.90;;;2.50;;
1591;SDS011;789;51.612;7.510;2022-07-23T14:48:54;3.27;;;3.00;;
1591;SDS011;789;51.612;7.510;2022-07-23T14:51:21;3.30;;;3.00;;
1591;SDS011;789;51.612;7.510;2022-07-23T14:53:48;6.83;;;3.30;;
1591;SDS011;789;51.612;7.510;2022-07-23T14:56:16;3.17;;;2.87;;
1591;SDS011;789;51.612;7.510;2022-07-23T14:58:43;3.20;;;2.90;;
1591;SDS011;789;51.612;7.510;2022-07-23T15:01:10;4.13;;;3.13;;
1591;SDS011;789;51.612;7.510;2022-07-23T15:03:36;2.57;;;2.37;;
1591;SDS011;789;51.612;7.510;2022-07-23T15:06:04;2.53;;;2.33;;
1591;SDS011;789;51.612;7.510;2022-07-23T15:08:31;6.43;;;2.90;;
1591;SDS011;789;51.612;7.510;2022-07-23T15:10:57;3.40;;;3.20;;
1591;SDS011;789;51.612;7.510;2022-07-23T15:13:26;4.80;;;4.30;;
1591;SDS011;789;51.612;7.510;2022-07-23T15:15:53;5.17;;;3.90;;
1591;SDS011;789;51.612;7.510;2022-07-23T15:18:19;4.47;;;3.20;;
1591;SDS011;789;51.612;7.510;2022-07-23T15:20:46;3.83;;;3.43;;
1591;SDS011;789;51.612;7.510;2022-07-23T15:23:13;4.13;;;2.80;;
1591;SDS011;789;51.612;7.510;2022-07-23T15:25:40;4.27;;;3.07;;
1591;SDS011;789;51.612;7.510;2022-07-23T15:28:06;3.37;;;2.93;;
1591;SDS011;789;51.612;7.510;2022-07-23T15:30:34;5.27;;;3.33;;